sensor_id;sensor_type;location;lat;lon;timestamp;temperature;humidity
51021;DHT22;38907;45.562;8.856;2023-05-09T00:03:45;18.90;99.90
51021;DHT22;38907;45.562;8.856;2023-05-09T00:08:48;18.90;99.90
51021;DHT22;38907;45.562;8.856;2023-05-09T00:13:50;18.90;99.90
51021;DHT22;38907;45.562;8.856;2023-05-09T00:18:52;18.80;99.90
51021;DHT22;38907;45.562;8.856;2023-05-09T00:23:56;18.90;99.90
51021;DHT22;38907;45.562;8.856;2023-05-09T00:28:59;18.80;99.90
51021;DHT22;38907;45.562;8.856;2023-05-09T00:34:01;18.80;99.90
51021;DHT22;38907;45.562;8.856;2023-05-09T00:39:04;18.70;99.90
51021;DHT22;38907;45.562;8.856;2023-05-09T00:44:07;18.70;99.90
51021;DHT22;38907;45.562;8.856;2023-05-09T00:49:09;18.80;99.90
51021;DHT22;38907;45.562;8.856;2023-05-09T00:54:13;18.60;99.90
51021;DHT22;38907;45.562;8.856;2023-05-09T00:59:15;18.50;99.90
51021;DHT22;38907;45.562;8.856;2023-05-09T01:04:17;18.50;99.90
51021;DHT22;38907;45.562;8.856;2023-05-09T01:09:24;18.50;99.90
51021;DHT22;38907;45.562;8.856;2023-05-09T01:14:36;18.40;99.90
51021;DHT22;38907;45.562;8.856;2023-05-09T01:19:58;18.30;99.90
51021;DHT22;38907;45.562;8.856;2023-05-09T01:25:35;18.10;99.90
51021;DHT22;38907;45.562;8.856;2023-05-09T01:30:41;17.90;99.90
51021;DHT22;38907;45.562;8.856;2023-05-09T01:35:48;17.80;99.90
51021;DHT22;38907;45.562;8.856;2023-05-09T01:40:53;17.90;99.90
51021;DHT22;38907;45.562;8.856;2023-05-09T01:45:57;17.90;99.90
51021;DHT22;38907;45.562;8.856;2023-05-09T01:51:00;18.00;99.90
51021;DHT22;38907;45.562;8.856;2023-05-09T01:56:03;18.10;99.90
51021;DHT22;38907;45.562;8.856;2023-05-09T02:01:07;18.20;99.90
51021;DHT22;38907;45.562;8.856;2023-05-09T02:06:10;18.10;99.90
51021;DHT22;38907;45.562;8.856;2023-05-09T02:11:12;18.10;99.90
51021;DHT22;38907;45.562;8.856;2023-05-09T02:16:16;18.10;99.90
51021;DHT22;38907;45.562;8.856;2023-05-09T02:21:17;18.30;99.90
51021;DHT22;38907;45.562;8.856;2023-05-09T02:26:19;18.30;99.90
51021;DHT22;38907;45.562;8.856;2023-05-09T02:31:24;18.30;99.90
51021;DHT22;38907;45.562;8.856;2023-05-09T02:36:28;18.30;99.90
51021;DHT22;38907;45.562;8.856;2023-05-09T02:41:31;18.20;99.90
51021;DHT22;38907;45.562;8.856;2023-05-09T02:46:34;18.20;99.90
51021;DHT22;38907;45.562;8.856;2023-05-09T02:51:36;18.10;99.90
51021;DHT22;38907;45.562;8.856;2023-05-09T02:56:38;18.20;99.90
51021;DHT22;38907;45.562;8.856;2023-05-09T03:01:41;18.20;99.90
51021;DHT22;38907;45.562;8.856;2023-05-09T03:06:43;18.20;99.90
51021;DHT22;38907;45.562;8.856;2023-05-09T03:11:45;18.30;99.90
51021;DHT22;38907;45.562;8.856;2023-05-09T03:16:48;18.40;99.90
51021;DHT22;38907;45.562;8.856;2023-05-09T03:21:50;18.30;99.90
51021;DHT22;38907;45.562;8.856;2023-05-09T03:26:52;18.30;99.90
51021;DHT22;38907;45.562;8.856;2023-05-09T03:31:55;18.20;99.90
51021;DHT22;38907;45.562;8.856;2023-05-09T03:36:58;18.20;99.90
51021;DHT22;38907;45.562;8.856;2023-05-09T03:42:00;18.20;99.90
51021;DHT22;38907;45.562;8.856;2023-05-09T03:47:03;18.30;99.90
51021;DHT22;38907;45.562;8.856;2023-05-09T03:52:05;18.20;99.90
51021;DHT22;38907;45.562;8.856;2023-05-09T03:57:07;18.20;99.90
51021;DHT22;38907;45.562;8.856;2023-05-09T04:02:10;18.20;99.90
51021;DHT22;38907;45.562;8.856;2023-05-09T04:07:12;18.20;99.90
51021;DHT22;38907;45.562;8.856;2023-05-09T04:12:14;18.10;99.90
51021;DHT22;38907;45.562;8.856;2023-05-09T04:17:17;18.20;99.90
51021;DHT22;38907;45.562;8.856;2023-05-09T04:22:19;18.20;99.90
51021;DHT22;38907;45.562;8.856;2023-05-09T04:27:21;18.10;99.90
51021;DHT22;38907;45.562;8.856;2023-05-09T04:32:24;18.20;99.90
51021;DHT22;38907;45.562;8.856;2023-05-09T04:37:26;18.30;99.90
51021;DHT22;38907;45.562;8.856;2023-05-09T04:42:28;18.20;99.90
51021;DHT22;38907;45.562;8.856;2023-05-09T04:47:34;18.30;99.90
51021;DHT22;38907;45.562;8.856;2023-05-09T04:52:36;18.30;99.90
51021;DHT22;38907;45.562;8.856;2023-05-09T04:57:38;18.20;99.90
51021;DHT22;38907;45.562;8.856;2023-05-09T05:02:41;18.30;99.90
51021;DHT22;38907;45.562;8.856;2023-05-09T05:07:43;18.30;99.90
51021;DHT22;38907;45.562;8.856;2023-05-09T05:12:44;18.30;99.90
51021;DHT22;38907;45.562;8.856;2023-05-09T05:17:48;18.40;99.90
51021;DHT22;38907;45.562;8.856;2023-05-09T05:22:50;18.60;99.90
51021;DHT22;38907;45.562;8.856;2023-05-09T05:27:52;18.60;99.90
51021;DHT22;38907;45.562;8.856;2023-05-09T05:32:55;18.50;99.90
51021;DHT22;38907;45.562;8.856;2023-05-09T05:37:57;18.50;99.90
51021;DHT22;38907;45.562;8.856;2023-05-09T05:42:59;18.60;99.90
51021;DHT22;38907;45.562;8.856;2023-05-09T05:48:03;18.60;99.90
51021;DHT22;38907;45.562;8.856;2023-05-09T05:53:04;18.70;99.90
51021;DHT22;38907;45.562;8.856;2023-05-09T05:58:07;18.70;99.90
51021;DHT22;38907;45.562;8.856;2023-05-09T06:03:10;18.60;99.90
51021;DHT22;38907;45.562;8.856;2023-05-09T06:08:13;18.70;99.90
51021;DHT22;38907;45.562;8.856;2023-05-09T06:13:15;18.90;99.90
51021;DHT22;38907;45.562;8.856;2023-05-09T06:18:18;18.90;99.90
51021;DHT22;38907;45.562;8.856;2023-05-09T06:23:20;19.00;99.90
51021;DHT22;38907;45.562;8.856;2023-05-09T06:28:22;19.00;99.90
51021;DHT22;38907;45.562;8.856;2023-05-09T06:33:26;19.00;99.90
51021;DHT22;38907;45.562;8.856;2023-05-09T06:38:28;18.90;99.90
51021;DHT22;38907;45.562;8.856;2023-05-09T06:43:30;18.90;99.90
51021;DHT22;38907;45.562;8.856;2023-05-09T06:48:33;18.90;99.90
51021;DHT22;38907;45.562;8.856;2023-05-09T06:53:35;18.90;99.90
51021;DHT22;38907;45.562;8.856;2023-05-09T06:58:37;18.80;99.90
51021;DHT22;38907;45.562;8.856;2023-05-09T07:03:40;18.90;99.90
51021;DHT22;38907;45.562;8.856;2023-05-09T07:08:42;18.90;99.90
51021;DHT22;38907;45.562;8.856;2023-05-09T07:13:44;18.90;99.90
51021;DHT22;38907;45.562;8.856;2023-05-09T07:18:47;18.90;99.90
51021;DHT22;38907;45.562;8.856;2023-05-09T07:23:49;19.00;99.90
51021;DHT22;38907;45.562;8.856;2023-05-09T07:28:50;19.10;99.90
51021;DHT22;38907;45.562;8.856;2023-05-09T07:33:54;19.30;99.90
51021;DHT22;38907;45.562;8.856;2023-05-09T07:38:56;19.30;99.90
51021;DHT22;38907;45.562;8.856;2023-05-09T07:43:57;19.30;99.90
51021;DHT22;38907;45.562;8.856;2023-05-09T07:49:01;19.40;99.90
51021;DHT22;38907;45.562;8.856;2023-05-09T07:54:02;19.60;99.90
51021;DHT22;38907;45.562;8.856;2023-05-09T07:59:04;19.70;99.90
51021;DHT22;38907;45.562;8.856;2023-05-09T08:04:07;19.80;99.90
51021;DHT22;38907;45.562;8.856;2023-05-09T08:09:09;19.80;99.90
51021;DHT22;38907;45.562;8.856;2023-05-09T08:14:11;19.80;99.90
51021;DHT22;38907;45.562;8.856;2023-05-09T08:19:15;19.90;99.90
51021;DHT22;38907;45.562;8.856;2023-05-09T08:24:17;19.80;99.90
51021;DHT22;38907;45.562;8.856;2023-05-09T08:29:18;19.90;99.90
51021;DHT22;38907;45.562;8.856;2023-05-09T08:34:22;19.90;99.90
51021;DHT22;38907;45.562;8.856;2023-05-09T08:39:23;20.00;99.90
51021;DHT22;38907;45.562;8.856;2023-05-09T08:44:26;20.00;99.90
51021;DHT22;38907;45.562;8.856;2023-05-09T08:49:31;20.20;99.90
51021;DHT22;38907;45.562;8.856;2023-05-09T08:54:34;20.20;99.90
51021;DHT22;38907;45.562;8.856;2023-05-09T08:59:37;20.10;99.90
51021;DHT22;38907;45.562;8.856;2023-05-09T09:04:42;20.20;99.90
51021;DHT22;38907;45.562;8.856;2023-05-09T09:09:46;20.20;99.90
51021;DHT22;38907;45.562;8.856;2023-05-09T09:14:52;20.10;99.90
51021;DHT22;38907;45.562;8.856;2023-05-09T09:19:58;20.10;99.90
51021;DHT22;38907;45.562;8.856;2023-05-09T09:25:02;20.20;99.90
51021;DHT22;38907;45.562;8.856;2023-05-09T09:30:07;20.30;99.90
51021;DHT22;38907;45.562;8.856;2023-05-09T09:35:11;20.30;99.90
51021;DHT22;38907;45.562;8.856;2023-05-09T09:40:13;20.20;99.90
51021;DHT22;38907;45.562;8.856;2023-05-09T09:45:16;20.10;99.90
51021;DHT22;38907;45.562;8.856;2023-05-09T09:50:20;20.20;99.90
51021;DHT22;38907;45.562;8.856;2023-05-09T09:55:23;20.40;99.90
51021;DHT22;38907;45.562;8.856;2023-05-09T10:00:25;20.70;99.90
51021;DHT22;38907;45.562;8.856;2023-05-09T10:05:30;20.80;99.90
51021;DHT22;38907;45.562;8.856;2023-05-09T10:10:34;20.80;99.90
51021;DHT22;38907;45.562;8.856;2023-05-09T10:15:37;20.80;99.90
51021;DHT22;38907;45.562;8.856;2023-05-09T10:20:42;21.00;99.90
51021;DHT22;38907;45.562;8.856;2023-05-09T10:25:47;21.20;99.90
51021;DHT22;38907;45.562;8.856;2023-05-09T10:30:56;21.10;99.90
51021;DHT22;38907;45.562;8.856;2023-05-09T10:36:02;21.10;99.90
51021;DHT22;38907;45.562;8.856;2023-05-09T10:41:04;21.10;99.90
51021;DHT22;38907;45.562;8.856;2023-05-09T10:46:06;21.40;99.90
51021;DHT22;38907;45.562;8.856;2023-05-09T10:51:11;21.40;99.90
51021;DHT22;38907;45.562;8.856;2023-05-09T10:56:24;21.30;99.90
51021;DHT22;38907;45.562;8.856;2023-05-09T11:01:28;21.40;99.90
51021;DHT22;38907;45.562;8.856;2023-05-09T11:06:44;21.50;99.90
51021;DHT22;38907;45.562;8.856;2023-05-09T11:11:52;21.60;99.90
51021;DHT22;38907;45.562;8.856;2023-05-09T11:16:57;21.70;99.90
51021;DHT22;38907;45.562;8.856;2023-05-09T11:22:03;21.80;99.90
51021;DHT22;38907;45.562;8.856;2023-05-09T11:27:15;22.10;99.90
51021;DHT22;38907;45.562;8.856;2023-05-09T11:32:18;22.00;99.90
51021;DHT22;38907;45.562;8.856;2023-05-09T11:37:21;22.00;99.90
51021;DHT22;38907;45.562;8.856;2023-05-09T11:42:24;22.00;99.90
51021;DHT22;38907;45.562;8.856;2023-05-09T11:47:26;22.00;99.90
51021;DHT22;38907;45.562;8.856;2023-05-09T11:52:32;22.10;99.90
51021;DHT22;38907;45.562;8.856;2023-05-09T11:57:34;22.00;99.90
51021;DHT22;38907;45.562;8.856;2023-05-09T12:02:37;22.20;99.90
51021;DHT22;38907;45.562;8.856;2023-05-09T12:07:40;22.10;99.90
51021;DHT22;38907;45.562;8.856;2023-05-09T12:12:44;22.10;99.90
51021;DHT22;38907;45.562;8.856;2023-05-09T12:17:47;22.00;99.90
51021;DHT22;38907;45.562;8.856;2023-05-09T12:23:02;22.20;99.90
51021;DHT22;38907;45.562;8.856;2023-05-09T12:28:04;22.20;99.90
51021;DHT22;38907;45.562;8.856;2023-05-09T12:33:06;22.10;99.90
51021;DHT22;38907;45.562;8.856;2023-05-09T12:38:13;22.00;99.90
51021;DHT22;38907;45.562;8.856;2023-05-09T12:43:16;22.10;99.90
51021;DHT22;38907;45.562;8.856;2023-05-09T12:48:21;22.00;99.90
51021;DHT22;38907;45.562;8.856;2023-05-09T12:53:26;22.00;99.90
51021;DHT22;38907;45.562;8.856;2023-05-09T12:58:30;22.10;99.90
51021;DHT22;38907;45.562;8.856;2023-05-09T13:03:33;22.10;99.90
51021;DHT22;38907;45.562;8.856;2023-05-09T13:08:39;22.20;99.90
51021;DHT22;38907;45.562;8.856;2023-05-09T13:13:41;22.50;99.90
51021;DHT22;38907;45.562;8.856;2023-05-09T13:18:43;22.70;99.90
51021;DHT22;38907;45.562;8.856;2023-05-09T13:23:46;22.60;99.90
51021;DHT22;38907;45.562;8.856;2023-05-09T13:28:49;22.40;99.90
51021;DHT22;38907;45.562;8.856;2023-05-09T13:33:51;22.40;99.90
51021;DHT22;38907;45.562;8.856;2023-05-09T13:38:55;22.80;99.90
51021;DHT22;38907;45.562;8.856;2023-05-09T13:43:57;22.70;99.90
51021;DHT22;38907;45.562;8.856;2023-05-09T13:48:59;22.50;99.90
51021;DHT22;38907;45.562;8.856;2023-05-09T13:54:04;22.30;99.90
51021;DHT22;38907;45.562;8.856;2023-05-09T13:59:12;22.20;99.90
51021;DHT22;38907;45.562;8.856;2023-05-09T14:04:14;22.10;99.90
51021;DHT22;38907;45.562;8.856;2023-05-09T14:09:17;21.90;99.90
51021;DHT22;38907;45.562;8.856;2023-05-09T14:14:22;21.80;99.90
51021;DHT22;38907;45.562;8.856;2023-05-09T14:19:26;21.80;99.90
51021;DHT22;38907;45.562;8.856;2023-05-09T14:24:29;21.80;99.90
51021;DHT22;38907;45.562;8.856;2023-05-09T14:29:33;21.70;99.90
51021;DHT22;38907;45.562;8.856;2023-05-09T14:34:36;21.70;99.90
51021;DHT22;38907;45.562;8.856;2023-05-09T14:39:40;21.70;99.90
51021;DHT22;38907;45.562;8.856;2023-05-09T14:44:43;21.60;99.90
51021;DHT22;38907;45.562;8.856;2023-05-09T14:49:46;21.60;99.90
51021;DHT22;38907;45.562;8.856;2023-05-09T14:54:50;21.60;99.90
51021;DHT22;38907;45.562;8.856;2023-05-09T14:59:52;21.50;99.90
51021;DHT22;38907;45.562;8.856;2023-05-09T15:04:54;21.50;99.90
51021;DHT22;38907;45.562;8.856;2023-05-09T15:09:57;21.40;99.90
51021;DHT22;38907;45.562;8.856;2023-05-09T15:15:11;21.30;99.90
51021;DHT22;38907;45.562;8.856;2023-05-09T15:20:14;21.30;99.90
51021;DHT22;38907;45.562;8.856;2023-05-09T15:25:18;21.30;99.90
51021;DHT22;38907;45.562;8.856;2023-05-09T15:30:21;21.30;99.90
51021;DHT22;38907;45.562;8.856;2023-05-09T15:35:24;21.30;99.90
51021;DHT22;38907;45.562;8.856;2023-05-09T15:40:27;21.30;99.90
51021;DHT22;38907;45.562;8.856;2023-05-09T15:45:29;21.30;99.90
51021;DHT22;38907;45.562;8.856;2023-05-09T15:50:32;21.20;99.90
51021;DHT22;38907;45.562;8.856;2023-05-09T15:55:35;21.20;99.90
51021;DHT22;38907;45.562;8.856;2023-05-09T16:00:37;21.20;99.90
51021;DHT22;38907;45.562;8.856;2023-05-09T16:05:40;21.20;99.90
51021;DHT22;38907;45.562;8.856;2023-05-09T16:10:43;21.20;99.90
51021;DHT22;38907;45.562;8.856;2023-05-09T16:15:48;21.10;99.90
51021;DHT22;38907;45.562;8.856;2023-05-09T16:20:51;21.10;99.90
51021;DHT22;38907;45.562;8.856;2023-05-09T16:25:54;21.10;99.90
51021;DHT22;38907;45.562;8.856;2023-05-09T16:30:56;21.10;99.90
51021;DHT22;38907;45.562;8.856;2023-05-09T16:35:59;21.00;99.90
51021;DHT22;38907;45.562;8.856;2023-05-09T16:41:02;21.00;99.90
51021;DHT22;38907;45.562;8.856;2023-05-09T16:46:05;21.00;99.90
51021;DHT22;38907;45.562;8.856;2023-05-09T16:51:07;20.90;99.90
51021;DHT22;38907;45.562;8.856;2023-05-09T16:56:11;20.90;99.90
51021;DHT22;38907;45.562;8.856;2023-05-09T17:01:12;20.90;99.90
51021;DHT22;38907;45.562;8.856;2023-05-09T17:06:14;20.90;99.90
51021;DHT22;38907;45.562;8.856;2023-05-09T17:11:18;20.80;99.90
51021;DHT22;38907;45.562;8.856;2023-05-09T17:16:21;20.70;99.90
51021;DHT22;38907;45.562;8.856;2023-05-09T17:21:23;20.60;99.90
51021;DHT22;38907;45.562;8.856;2023-05-09T17:26:26;20.50;99.90
51021;DHT22;38907;45.562;8.856;2023-05-09T17:31:29;20.30;99.90
51021;DHT22;38907;45.562;8.856;2023-05-09T17:36:30;20.10;99.90
51021;DHT22;38907;45.562;8.856;2023-05-09T17:41:34;19.90;99.90
51021;DHT22;38907;45.562;8.856;2023-05-09T17:46:36;19.70;99.90
51021;DHT22;38907;45.562;8.856;2023-05-09T17:51:38;19.60;99.90
51021;DHT22;38907;45.562;8.856;2023-05-09T17:56:41;19.60;99.90
51021;DHT22;38907;45.562;8.856;2023-05-09T18:01:43;19.40;99.90
51021;DHT22;38907;45.562;8.856;2023-05-09T18:06:45;19.30;99.90
51021;DHT22;38907;45.562;8.856;2023-05-09T18:11:48;19.10;99.90
51021;DHT22;38907;45.562;8.856;2023-05-09T18:16:50;19.10;99.90
51021;DHT22;38907;45.562;8.856;2023-05-09T18:21:52;19.00;99.90
51021;DHT22;38907;45.562;8.856;2023-05-09T18:26:55;18.90;99.90
51021;DHT22;38907;45.562;8.856;2023-05-09T18:31:57;18.70;99.90
51021;DHT22;38907;45.562;8.856;2023-05-09T18:36:59;18.70;99.90
51021;DHT22;38907;45.562;8.856;2023-05-09T18:42:02;18.60;99.90
51021;DHT22;38907;45.562;8.856;2023-05-09T18:47:05;18.70;99.90
51021;DHT22;38907;45.562;8.856;2023-05-09T18:52:08;18.60;99.90
51021;DHT22;38907;45.562;8.856;2023-05-09T18:57:11;18.70;99.90
51021;DHT22;38907;45.562;8.856;2023-05-09T19:02:13;18.60;99.90
51021;DHT22;38907;45.562;8.856;2023-05-09T19:07:16;18.60;99.90
51021;DHT22;38907;45.562;8.856;2023-05-09T19:12:19;18.50;99.90
51021;DHT22;38907;45.562;8.856;2023-05-09T19:17:21;18.50;99.90
51021;DHT22;38907;45.562;8.856;2023-05-09T19:22:23;18.50;99.90
51021;DHT22;38907;45.562;8.856;2023-05-09T19:27:27;18.30;99.90
51021;DHT22;38907;45.562;8.856;2023-05-09T19:32:28;18.30;99.90
51021;DHT22;38907;45.562;8.856;2023-05-09T19:37:30;18.30;99.90
51021;DHT22;38907;45.562;8.856;2023-05-09T19:42:34;18.10;99.90
51021;DHT22;38907;45.562;8.856;2023-05-09T19:47:37;18.10;99.90
51021;DHT22;38907;45.562;8.856;2023-05-09T19:52:39;18.10;99.90
51021;DHT22;38907;45.562;8.856;2023-05-09T19:57:42;18.20;99.90
51021;DHT22;38907;45.562;8.856;2023-05-09T20:02:44;18.30;99.90
51021;DHT22;38907;45.562;8.856;2023-05-09T20:07:46;18.20;99.90
51021;DHT22;38907;45.562;8.856;2023-05-09T20:12:49;18.20;99.90
51021;DHT22;38907;45.562;8.856;2023-05-09T20:17:52;18.00;99.90
51021;DHT22;38907;45.562;8.856;2023-05-09T20:22:54;17.90;99.90
51021;DHT22;38907;45.562;8.856;2023-05-09T20:27:57;17.60;99.90
51021;DHT22;38907;45.562;8.856;2023-05-09T20:32:59;17.40;99.90
51021;DHT22;38907;45.562;8.856;2023-05-09T20:38:02;17.30;99.90
51021;DHT22;38907;45.562;8.856;2023-05-09T20:43:06;17.20;99.90
51021;DHT22;38907;45.562;8.856;2023-05-09T20:48:08;17.10;99.90
51021;DHT22;38907;45.562;8.856;2023-05-09T20:53:10;17.10;99.90
51021;DHT22;38907;45.562;8.856;2023-05-09T20:58:13;17.00;99.90
51021;DHT22;38907;45.562;8.856;2023-05-09T21:03:15;16.90;99.90
51021;DHT22;38907;45.562;8.856;2023-05-09T21:08:17;16.80;99.90
51021;DHT22;38907;45.562;8.856;2023-05-09T21:13:21;16.60;99.90
51021;DHT22;38907;45.562;8.856;2023-05-09T21:18:23;16.70;99.90
51021;DHT22;38907;45.562;8.856;2023-05-09T21:23:25;16.60;99.90
51021;DHT22;38907;45.562;8.856;2023-05-09T21:28:28;16.50;99.90
51021;DHT22;38907;45.562;8.856;2023-05-09T21:33:30;16.50;99.90
51021;DHT22;38907;45.562;8.856;2023-05-09T21:38:32;16.40;99.90
51021;DHT22;38907;45.562;8.856;2023-05-09T21:43:35;16.10;99.90
51021;DHT22;38907;45.562;8.856;2023-05-09T21:48:37;16.10;99.90
51021;DHT22;38907;45.562;8.856;2023-05-09T21:53:38;16.10;99.90
51021;DHT22;38907;45.562;8.856;2023-05-09T21:58:42;16.10;99.90
51021;DHT22;38907;45.562;8.856;2023-05-09T22:03:43;16.30;99.90
51021;DHT22;38907;45.562;8.856;2023-05-09T22:08:45;16.00;99.90
51021;DHT22;38907;45.562;8.856;2023-05-09T22:13:48;16.00;99.90
51021;DHT22;38907;45.562;8.856;2023-05-09T22:18:50;15.90;99.90
51021;DHT22;38907;45.562;8.856;2023-05-09T22:23:53;15.90;99.90
51021;DHT22;38907;45.562;8.856;2023-05-09T22:28:56;15.90;99.90
51021;DHT22;38907;45.562;8.856;2023-05-09T22:33:58;15.80;99.90
51021;DHT22;38907;45.562;8.856;2023-05-09T22:38:59;15.80;99.90
51021;DHT22;38907;45.562;8.856;2023-05-09T22:44:03;15.90;99.90
51021;DHT22;38907;45.562;8.856;2023-05-09T22:49:05;15.80;99.90
51021;DHT22;38907;45.562;8.856;2023-05-09T22:54:07;15.90;99.90
51021;DHT22;38907;45.562;8.856;2023-05-09T22:59:10;15.80;99.90
51021;DHT22;38907;45.562;8.856;2023-05-09T23:04:12;15.80;99.90
51021;DHT22;38907;45.562;8.856;2023-05-09T23:09:14;15.80;99.90
51021;DHT22;38907;45.562;8.856;2023-05-09T23:14:17;15.60;99.90
51021;DHT22;38907;45.562;8.856;2023-05-09T23:19:19;15.70;99.90
51021;DHT22;38907;45.562;8.856;2023-05-09T23:24:21;15.60;99.90
51021;DHT22;38907;45.562;8.856;2023-05-09T23:29:24;15.60;99.90
51021;DHT22;38907;45.562;8.856;2023-05-09T23:34:26;15.60;99.90
51021;DHT22;38907;45.562;8.856;2023-05-09T23:39:29;15.40;99.90
51021;DHT22;38907;45.562;8.856;2023-05-09T23:44:32;15.40;99.90
51021;DHT22;38907;45.562;8.856;2023-05-09T23:49:34;15.50;99.90
51021;DHT22;38907;45.562;8.856;2023-05-09T23:54:36;15.60;99.90
51021;DHT22;38907;45.562;8.856;2023-05-09T23:59:40;15.40;99.90
